sensor_id;sensor_type;location;lat;lon;timestamp;P1;durP1;ratioP1;P2;durP2;ratioP2
57087;SDS011;42965;52.846;6.614;2022-12-07T00:01:11;7.22;;;1.83;;
57087;SDS011;42965;52.846;6.614;2022-12-07T00:03:39;7.05;;;1.35;;
57087;SDS011;42965;52.846;6.614;2022-12-07T00:06:08;9.98;;;1.58;;
57087;SDS011;42965;52.846;6.614;2022-12-07T00:08:36;5.82;;;1.45;;
57087;SDS011;42965;52.846;6.614;2022-12-07T00:11:03;5.60;;;1.67;;
57087;SDS011;42965;52.846;6.614;2022-12-07T00:13:32;8.63;;;1.52;;
57087;SDS011;42965;52.846;6.614;2022-12-07T00:16:02;7.70;;;1.73;;
57087;SDS011;42965;52.846;6.614;2022-12-07T00:18:40;5.35;;;1.80;;
57087;SDS011;42965;52.846;6.614;2022-12-07T00:21:09;4.05;;;1.52;;
57087;SDS011;42965;52.846;6.614;2022-12-07T00:23:37;6.50;;;2.22;;
57087;SDS011;42965;52.846;6.614;2022-12-07T00:26:04;8.10;;;2.30;;
57087;SDS011;42965;52.846;6.614;2022-12-07T00:28:45;6.45;;;2.17;;
57087;SDS011;42965;52.846;6.614;2022-12-07T00:31:16;6.07;;;1.55;;
57087;SDS011;42965;52.846;6.614;2022-12-07T00:33:44;9.18;;;2.30;;
57087;SDS011;42965;52.846;6.614;2022-12-07T00:36:12;5.40;;;2.35;;
57087;SDS011;42965;52.846;6.614;2022-12-07T00:38:40;6.22;;;1.90;;
57087;SDS011;42965;52.846;6.614;2022-12-07T00:41:11;5.97;;;1.75;;
57087;SDS011;42965;52.846;6.614;2022-12-07T00:43:37;9.88;;;2.03;;
57087;SDS011;42965;52.846;6.614;2022-12-07T00:46:04;6.97;;;1.58;;
57087;SDS011;42965;52.846;6.614;2022-12-07T00:48:30;9.30;;;2.15;;
57087;SDS011;42965;52.846;6.614;2022-12-07T00:50:56;11.15;;;2.08;;
57087;SDS011;42965;52.846;6.614;2022-12-07T00:53:23;6.38;;;1.58;;
57087;SDS011;42965;52.846;6.614;2022-12-07T00:55:49;25.88;;;3.10;;
57087;SDS011;42965;52.846;6.614;2022-12-07T00:58:16;4.25;;;1.65;;
57087;SDS011;42965;52.846;6.614;2022-12-07T01:00:43;6.82;;;2.35;;
57087;SDS011;42965;52.846;6.614;2022-12-07T01:03:10;6.97;;;1.95;;
57087;SDS011;42965;52.846;6.614;2022-12-07T01:05:38;5.97;;;2.08;;
57087;SDS011;42965;52.846;6.614;2022-12-07T01:08:05;6.97;;;2.05;;
57087;SDS011;42965;52.846;6.614;2022-12-07T01:10:32;10.05;;;2.00;;
57087;SDS011;42965;52.846;6.614;2022-12-07T01:12:58;7.65;;;2.05;;
57087;SDS011;42965;52.846;6.614;2022-12-07T01:15:25;7.78;;;2.78;;
57087;SDS011;42965;52.846;6.614;2022-12-07T01:17:51;9.52;;;3.13;;
57087;SDS011;42965;52.846;6.614;2022-12-07T01:20:18;10.20;;;2.10;;
57087;SDS011;42965;52.846;6.614;2022-12-07T01:22:44;7.15;;;1.88;;
57087;SDS011;42965;52.846;6.614;2022-12-07T01:25:11;11.02;;;2.25;;
57087;SDS011;42965;52.846;6.614;2022-12-07T01:27:37;8.40;;;2.05;;
57087;SDS011;42965;52.846;6.614;2022-12-07T01:30:04;10.07;;;2.20;;
57087;SDS011;42965;52.846;6.614;2022-12-07T01:32:32;13.50;;;2.47;;
57087;SDS011;42965;52.846;6.614;2022-12-07T01:34:59;8.07;;;1.88;;
57087;SDS011;42965;52.846;6.614;2022-12-07T01:37:25;8.15;;;1.55;;
57087;SDS011;42965;52.846;6.614;2022-12-07T01:39:51;5.95;;;1.48;;
57087;SDS011;42965;52.846;6.614;2022-12-07T01:42:18;12.18;;;1.80;;
57087;SDS011;42965;52.846;6.614;2022-12-07T01:47:52;4.68;;;1.50;;
57087;SDS011;42965;52.846;6.614;2022-12-07T01:50:21;5.97;;;1.50;;
57087;SDS011;42965;52.846;6.614;2022-12-07T01:52:50;9.13;;;1.52;;
57087;SDS011;42965;52.846;6.614;2022-12-07T01:55:19;5.07;;;1.40;;
57087;SDS011;42965;52.846;6.614;2022-12-07T01:57:47;8.40;;;2.60;;
57087;SDS011;42965;52.846;6.614;2022-12-07T02:02:54;5.38;;;1.55;;
57087;SDS011;42965;52.846;6.614;2022-12-07T02:05:25;5.25;;;1.48;;
57087;SDS011;42965;52.846;6.614;2022-12-07T02:07:53;6.43;;;1.50;;
57087;SDS011;42965;52.846;6.614;2022-12-07T02:10:23;3.40;;;1.30;;
57087;SDS011;42965;52.846;6.614;2022-12-07T02:12:54;5.95;;;1.50;;
57087;SDS011;42965;52.846;6.614;2022-12-07T02:15:33;6.25;;;1.10;;
57087;SDS011;42965;52.846;6.614;2022-12-07T02:29:24;4.75;;;1.33;;
57087;SDS011;42965;52.846;6.614;2022-12-07T02:35:09;7.82;;;1.85;;
57087;SDS011;42965;52.846;6.614;2022-12-07T02:40:21;7.55;;;2.30;;
57087;SDS011;42965;52.846;6.614;2022-12-07T02:43:31;8.23;;;2.83;;
57087;SDS011;42965;52.846;6.614;2022-12-07T02:45:44;7.15;;;3.22;;
57087;SDS011;42965;52.846;6.614;2022-12-07T02:48:12;7.75;;;2.80;;
57087;SDS011;42965;52.846;6.614;2022-12-07T02:50:45;8.30;;;3.00;;
57087;SDS011;42965;52.846;6.614;2022-12-07T02:55:56;7.43;;;3.08;;
57087;SDS011;42965;52.846;6.614;2022-12-07T02:58:26;8.27;;;3.13;;
57087;SDS011;42965;52.846;6.614;2022-12-07T03:01:09;10.60;;;3.38;;
57087;SDS011;42965;52.846;6.614;2022-12-07T03:03:46;9.57;;;2.80;;
57087;SDS011;42965;52.846;6.614;2022-12-07T03:06:24;9.30;;;2.92;;
57087;SDS011;42965;52.846;6.614;2022-12-07T03:11:59;7.57;;;2.70;;
57087;SDS011;42965;52.846;6.614;2022-12-07T03:14:35;5.95;;;2.28;;
57087;SDS011;42965;52.846;6.614;2022-12-07T03:17:13;10.63;;;2.63;;
57087;SDS011;42965;52.846;6.614;2022-12-07T03:19:46;7.75;;;2.15;;
57087;SDS011;42965;52.846;6.614;2022-12-07T03:22:17;7.10;;;1.87;;
57087;SDS011;42965;52.846;6.614;2022-12-07T03:24:46;12.18;;;2.05;;
57087;SDS011;42965;52.846;6.614;2022-12-07T03:29:59;7.25;;;1.52;;
57087;SDS011;42965;52.846;6.614;2022-12-07T03:35:25;3.95;;;1.30;;
57087;SDS011;42965;52.846;6.614;2022-12-07T03:38:00;9.55;;;1.40;;
57087;SDS011;42965;52.846;6.614;2022-12-07T03:43:20;8.70;;;1.48;;
57087;SDS011;42965;52.846;6.614;2022-12-07T03:46:12;6.50;;;1.75;;
57087;SDS011;42965;52.846;6.614;2022-12-07T03:49:18;5.40;;;1.08;;
57087;SDS011;42965;52.846;6.614;2022-12-07T03:54:05;4.95;;;1.10;;
57087;SDS011;42965;52.846;6.614;2022-12-07T03:56:51;7.63;;;1.40;;
57087;SDS011;42965;52.846;6.614;2022-12-07T03:59:18;3.90;;;1.20;;
57087;SDS011;42965;52.846;6.614;2022-12-07T04:01:51;4.95;;;1.58;;
57087;SDS011;42965;52.846;6.614;2022-12-07T04:04:20;12.05;;;1.27;;
57087;SDS011;42965;52.846;6.614;2022-12-07T04:06:47;8.10;;;1.02;;
57087;SDS011;42965;52.846;6.614;2022-12-07T04:09:13;7.57;;;1.23;;
57087;SDS011;42965;52.846;6.614;2022-12-07T04:11:40;9.60;;;1.20;;
57087;SDS011;42965;52.846;6.614;2022-12-07T04:14:06;5.63;;;0.90;;
57087;SDS011;42965;52.846;6.614;2022-12-07T04:17:05;3.15;;;1.45;;
57087;SDS011;42965;52.846;6.614;2022-12-07T04:19:32;5.18;;;1.30;;
57087;SDS011;42965;52.846;6.614;2022-12-07T04:22:00;7.50;;;2.35;;
57087;SDS011;42965;52.846;6.614;2022-12-07T04:24:27;3.45;;;1.27;;
57087;SDS011;42965;52.846;6.614;2022-12-07T04:26:54;9.27;;;1.33;;
57087;SDS011;42965;52.846;6.614;2022-12-07T04:29:20;6.53;;;1.05;;
57087;SDS011;42965;52.846;6.614;2022-12-07T04:31:47;3.90;;;1.00;;
57087;SDS011;42965;52.846;6.614;2022-12-07T04:34:14;5.70;;;1.63;;
57087;SDS011;42965;52.846;6.614;2022-12-07T04:36:41;5.22;;;1.05;;
57087;SDS011;42965;52.846;6.614;2022-12-07T04:39:08;6.22;;;1.27;;
57087;SDS011;42965;52.846;6.614;2022-12-07T04:41:44;3.92;;;0.77;;
57087;SDS011;42965;52.846;6.614;2022-12-07T04:44:10;8.50;;;1.25;;
57087;SDS011;42965;52.846;6.614;2022-12-07T04:46:40;7.18;;;1.17;;
57087;SDS011;42965;52.846;6.614;2022-12-07T04:49:07;7.32;;;1.17;;
57087;SDS011;42965;52.846;6.614;2022-12-07T04:51:33;10.82;;;1.10;;
57087;SDS011;42965;52.846;6.614;2022-12-07T04:53:59;8.63;;;1.67;;
57087;SDS011;42965;52.846;6.614;2022-12-07T04:56:26;7.28;;;1.17;;
57087;SDS011;42965;52.846;6.614;2022-12-07T04:58:52;3.45;;;1.02;;
57087;SDS011;42965;52.846;6.614;2022-12-07T05:01:20;7.97;;;2.13;;
57087;SDS011;42965;52.846;6.614;2022-12-07T05:03:48;7.07;;;1.00;;
57087;SDS011;42965;52.846;6.614;2022-12-07T05:06:14;4.55;;;1.00;;
57087;SDS011;42965;52.846;6.614;2022-12-07T05:08:41;8.50;;;1.05;;
57087;SDS011;42965;52.846;6.614;2022-12-07T05:11:08;7.28;;;1.27;;
57087;SDS011;42965;52.846;6.614;2022-12-07T05:13:55;7.35;;;1.25;;
57087;SDS011;42965;52.846;6.614;2022-12-07T05:16:22;9.23;;;1.67;;
57087;SDS011;42965;52.846;6.614;2022-12-07T05:18:48;6.38;;;1.30;;
57087;SDS011;42965;52.846;6.614;2022-12-07T05:21:15;4.90;;;1.40;;
57087;SDS011;42965;52.846;6.614;2022-12-07T05:23:41;6.40;;;1.20;;
57087;SDS011;42965;52.846;6.614;2022-12-07T05:26:07;3.50;;;0.80;;
57087;SDS011;42965;52.846;6.614;2022-12-07T05:28:33;11.73;;;2.65;;
57087;SDS011;42965;52.846;6.614;2022-12-07T05:30:59;10.32;;;1.55;;
57087;SDS011;42965;52.846;6.614;2022-12-07T05:33:25;5.07;;;1.10;;
57087;SDS011;42965;52.846;6.614;2022-12-07T05:35:52;5.57;;;1.73;;
57087;SDS011;42965;52.846;6.614;2022-12-07T05:38:18;6.38;;;1.02;;
57087;SDS011;42965;52.846;6.614;2022-12-07T05:40:44;2.72;;;1.30;;
57087;SDS011;42965;52.846;6.614;2022-12-07T05:43:10;5.75;;;1.35;;
57087;SDS011;42965;52.846;6.614;2022-12-07T05:45:37;4.68;;;1.20;;
57087;SDS011;42965;52.846;6.614;2022-12-07T05:48:03;7.13;;;1.20;;
57087;SDS011;42965;52.846;6.614;2022-12-07T05:50:29;6.75;;;2.38;;
57087;SDS011;42965;52.846;6.614;2022-12-07T05:53:01;10.52;;;1.73;;
57087;SDS011;42965;52.846;6.614;2022-12-07T05:55:28;4.25;;;1.35;;
57087;SDS011;42965;52.846;6.614;2022-12-07T05:57:54;8.27;;;1.05;;
57087;SDS011;42965;52.846;6.614;2022-12-07T06:00:38;9.23;;;1.30;;
57087;SDS011;42965;52.846;6.614;2022-12-07T06:03:05;4.50;;;1.27;;
57087;SDS011;42965;52.846;6.614;2022-12-07T06:05:32;11.65;;;1.75;;
57087;SDS011;42965;52.846;6.614;2022-12-07T06:07:58;6.78;;;1.27;;
57087;SDS011;42965;52.846;6.614;2022-12-07T06:10:24;5.57;;;1.65;;
57087;SDS011;42965;52.846;6.614;2022-12-07T06:12:50;7.20;;;1.38;;
57087;SDS011;42965;52.846;6.614;2022-12-07T06:15:16;2.70;;;0.80;;
57087;SDS011;42965;52.846;6.614;2022-12-07T06:17:42;6.53;;;1.02;;
57087;SDS011;42965;52.846;6.614;2022-12-07T06:20:09;8.13;;;1.42;;
57087;SDS011;42965;52.846;6.614;2022-12-07T06:22:35;6.85;;;1.35;;
57087;SDS011;42965;52.846;6.614;2022-12-07T06:25:01;6.45;;;1.30;;
57087;SDS011;42965;52.846;6.614;2022-12-07T06:27:29;7.50;;;1.30;;
57087;SDS011;42965;52.846;6.614;2022-12-07T06:29:55;9.20;;;1.65;;
57087;SDS011;42965;52.846;6.614;2022-12-07T06:32:21;9.32;;;1.20;;
57087;SDS011;42965;52.846;6.614;2022-12-07T06:34:48;11.63;;;2.40;;
57087;SDS011;42965;52.846;6.614;2022-12-07T06:37:15;3.92;;;1.15;;
57087;SDS011;42965;52.846;6.614;2022-12-07T06:39:42;6.35;;;1.30;;
57087;SDS011;42965;52.846;6.614;2022-12-07T06:42:08;6.70;;;1.15;;
57087;SDS011;42965;52.846;6.614;2022-12-07T06:44:34;8.50;;;2.28;;
57087;SDS011;42965;52.846;6.614;2022-12-07T06:47:01;7.75;;;1.15;;
57087;SDS011;42965;52.846;6.614;2022-12-07T06:49:27;4.82;;;1.20;;
57087;SDS011;42965;52.846;6.614;2022-12-07T06:51:53;6.25;;;1.20;;
57087;SDS011;42965;52.846;6.614;2022-12-07T06:54:20;5.35;;;1.10;;
57087;SDS011;42965;52.846;6.614;2022-12-07T06:56:46;7.10;;;1.55;;
57087;SDS011;42965;52.846;6.614;2022-12-07T06:59:12;14.05;;;1.50;;
57087;SDS011;42965;52.846;6.614;2022-12-07T07:01:39;9.13;;;1.80;;
57087;SDS011;42965;52.846;6.614;2022-12-07T07:04:05;8.23;;;1.58;;
57087;SDS011;42965;52.846;6.614;2022-12-07T07:06:32;6.13;;;1.30;;
57087;SDS011;42965;52.846;6.614;2022-12-07T07:08:59;9.15;;;1.40;;
57087;SDS011;42965;52.846;6.614;2022-12-07T07:11:25;8.73;;;1.98;;
57087;SDS011;42965;52.846;6.614;2022-12-07T07:13:52;5.97;;;1.27;;
57087;SDS011;42965;52.846;6.614;2022-12-07T07:16:19;4.57;;;1.38;;
57087;SDS011;42965;52.846;6.614;2022-12-07T07:18:45;5.03;;;1.20;;
57087;SDS011;42965;52.846;6.614;2022-12-07T07:21:11;5.65;;;1.08;;
57087;SDS011;42965;52.846;6.614;2022-12-07T07:23:38;8.57;;;1.70;;
57087;SDS011;42965;52.846;6.614;2022-12-07T07:26:04;7.40;;;1.63;;
57087;SDS011;42965;52.846;6.614;2022-12-07T07:28:30;7.45;;;1.23;;
57087;SDS011;42965;52.846;6.614;2022-12-07T07:30:56;7.20;;;1.48;;
57087;SDS011;42965;52.846;6.614;2022-12-07T07:33:23;5.97;;;1.13;;
57087;SDS011;42965;52.846;6.614;2022-12-07T07:35:49;6.60;;;1.30;;
57087;SDS011;42965;52.846;6.614;2022-12-07T07:38:15;4.07;;;1.20;;
57087;SDS011;42965;52.846;6.614;2022-12-07T07:40:41;9.50;;;1.45;;
57087;SDS011;42965;52.846;6.614;2022-12-07T07:43:07;4.35;;;1.30;;
57087;SDS011;42965;52.846;6.614;2022-12-07T07:45:34;6.18;;;1.48;;
57087;SDS011;42965;52.846;6.614;2022-12-07T07:48:00;6.78;;;1.63;;
57087;SDS011;42965;52.846;6.614;2022-12-07T07:50:26;5.38;;;1.27;;
57087;SDS011;42965;52.846;6.614;2022-12-07T07:52:52;6.82;;;1.65;;
57087;SDS011;42965;52.846;6.614;2022-12-07T07:55:18;4.57;;;1.65;;
57087;SDS011;42965;52.846;6.614;2022-12-07T07:57:45;6.40;;;1.58;;
57087;SDS011;42965;52.846;6.614;2022-12-07T08:00:12;6.75;;;1.60;;
57087;SDS011;42965;52.846;6.614;2022-12-07T08:02:40;7.97;;;1.73;;
57087;SDS011;42965;52.846;6.614;2022-12-07T08:05:08;4.25;;;1.20;;
57087;SDS011;42965;52.846;6.614;2022-12-07T08:07:39;9.07;;;1.60;;
57087;SDS011;42965;52.846;6.614;2022-12-07T08:10:07;7.57;;;2.45;;
57087;SDS011;42965;52.846;6.614;2022-12-07T08:12:37;10.60;;;1.75;;
57087;SDS011;42965;52.846;6.614;2022-12-07T08:15:24;8.82;;;1.73;;
57087;SDS011;42965;52.846;6.614;2022-12-07T08:17:51;6.07;;;1.02;;
57087;SDS011;42965;52.846;6.614;2022-12-07T08:20:17;7.00;;;1.30;;
57087;SDS011;42965;52.846;6.614;2022-12-07T08:22:44;7.30;;;1.23;;
57087;SDS011;42965;52.846;6.614;2022-12-07T08:25:10;5.70;;;1.40;;
57087;SDS011;42965;52.846;6.614;2022-12-07T08:27:36;7.07;;;1.27;;
57087;SDS011;42965;52.846;6.614;2022-12-07T08:30:02;9.18;;;1.52;;
57087;SDS011;42965;52.846;6.614;2022-12-07T08:32:29;5.20;;;1.10;;
57087;SDS011;42965;52.846;6.614;2022-12-07T08:34:55;6.18;;;1.10;;
57087;SDS011;42965;52.846;6.614;2022-12-07T08:37:21;7.43;;;1.73;;
57087;SDS011;42965;52.846;6.614;2022-12-07T08:39:47;8.15;;;1.45;;
57087;SDS011;42965;52.846;6.614;2022-12-07T08:42:14;7.10;;;1.30;;
57087;SDS011;42965;52.846;6.614;2022-12-07T08:44:40;7.55;;;1.63;;
57087;SDS011;42965;52.846;6.614;2022-12-07T08:47:06;6.82;;;1.20;;
57087;SDS011;42965;52.846;6.614;2022-12-07T08:49:35;9.40;;;1.83;;
57087;SDS011;42965;52.846;6.614;2022-12-07T08:52:05;6.80;;;1.13;;
57087;SDS011;42965;52.846;6.614;2022-12-07T08:54:31;3.55;;;1.00;;
57087;SDS011;42965;52.846;6.614;2022-12-07T08:57:02;5.20;;;0.98;;
57087;SDS011;42965;52.846;6.614;2022-12-07T08:59:28;5.63;;;1.35;;
57087;SDS011;42965;52.846;6.614;2022-12-07T09:01:55;6.45;;;1.40;;
57087;SDS011;42965;52.846;6.614;2022-12-07T09:04:22;6.72;;;1.25;;
57087;SDS011;42965;52.846;6.614;2022-12-07T09:06:48;4.10;;;1.63;;
57087;SDS011;42965;52.846;6.614;2022-12-07T09:09:15;4.40;;;1.40;;
57087;SDS011;42965;52.846;6.614;2022-12-07T09:11:41;6.10;;;1.23;;
57087;SDS011;42965;52.846;6.614;2022-12-07T09:14:08;9.70;;;1.95;;
57087;SDS011;42965;52.846;6.614;2022-12-07T09:16:34;4.32;;;0.98;;
57087;SDS011;42965;52.846;6.614;2022-12-07T09:19:00;9.02;;;1.77;;
57087;SDS011;42965;52.846;6.614;2022-12-07T09:21:26;8.70;;;1.45;;
57087;SDS011;42965;52.846;6.614;2022-12-07T09:23:53;4.25;;;1.45;;
57087;SDS011;42965;52.846;6.614;2022-12-07T09:26:19;7.82;;;1.52;;
57087;SDS011;42965;52.846;6.614;2022-12-07T09:28:45;7.70;;;1.80;;
57087;SDS011;42965;52.846;6.614;2022-12-07T09:31:11;6.90;;;1.50;;
57087;SDS011;42965;52.846;6.614;2022-12-07T09:33:37;5.93;;;1.58;;
57087;SDS011;42965;52.846;6.614;2022-12-07T09:36:04;10.88;;;2.03;;
57087;SDS011;42965;52.846;6.614;2022-12-07T09:38:31;8.77;;;1.60;;
57087;SDS011;42965;52.846;6.614;2022-12-07T09:40:58;6.53;;;1.85;;
57087;SDS011;42965;52.846;6.614;2022-12-07T09:43:30;11.05;;;1.70;;
57087;SDS011;42965;52.846;6.614;2022-12-07T09:45:57;11.85;;;1.67;;
57087;SDS011;42965;52.846;6.614;2022-12-07T09:48:33;5.40;;;2.00;;
57087;SDS011;42965;52.846;6.614;2022-12-07T09:51:14;4.75;;;1.65;;
57087;SDS011;42965;52.846;6.614;2022-12-07T09:53:48;7.50;;;1.48;;
57087;SDS011;42965;52.846;6.614;2022-12-07T09:56:16;6.85;;;1.70;;
57087;SDS011;42965;52.846;6.614;2022-12-07T09:58:44;7.50;;;1.65;;
57087;SDS011;42965;52.846;6.614;2022-12-07T10:06:24;9.32;;;1.70;;
57087;SDS011;42965;52.846;6.614;2022-12-07T10:08:50;7.85;;;1.90;;
57087;SDS011;42965;52.846;6.614;2022-12-07T10:11:17;4.90;;;1.38;;
57087;SDS011;42965;52.846;6.614;2022-12-07T10:13:44;6.90;;;1.40;;
57087;SDS011;42965;52.846;6.614;2022-12-07T10:18:53;6.05;;;1.33;;
57087;SDS011;42965;52.846;6.614;2022-12-07T10:21:24;11.18;;;2.00;;
57087;SDS011;42965;52.846;6.614;2022-12-07T10:26:32;5.90;;;1.52;;
57087;SDS011;42965;52.846;6.614;2022-12-07T10:29:17;7.38;;;1.63;;
57087;SDS011;42965;52.846;6.614;2022-12-07T10:31:48;6.00;;;1.70;;
57087;SDS011;42965;52.846;6.614;2022-12-07T10:34:21;10.45;;;1.73;;
57087;SDS011;42965;52.846;6.614;2022-12-07T10:36:53;4.50;;;1.40;;
57087;SDS011;42965;52.846;6.614;2022-12-07T10:39:31;5.57;;;1.48;;
57087;SDS011;42965;52.846;6.614;2022-12-07T10:42:17;5.03;;;1.38;;
57087;SDS011;42965;52.846;6.614;2022-12-07T10:44:45;2.47;;;1.70;;
57087;SDS011;42965;52.846;6.614;2022-12-07T11:01:27;6.00;;;1.40;;
57087;SDS011;42965;52.846;6.614;2022-12-07T11:04:16;4.90;;;1.17;;
57087;SDS011;42965;52.846;6.614;2022-12-07T11:09:47;8.85;;;2.03;;
57087;SDS011;42965;52.846;6.614;2022-12-07T11:12:47;11.30;;;1.60;;
57087;SDS011;42965;52.846;6.614;2022-12-07T11:18:29;6.50;;;1.50;;
57087;SDS011;42965;52.846;6.614;2022-12-07T11:21:33;12.77;;;1.10;;
57087;SDS011;42965;52.846;6.614;2022-12-07T11:24:03;6.22;;;1.58;;
57087;SDS011;42965;52.846;6.614;2022-12-07T11:29:28;7.07;;;2.47;;
57087;SDS011;42965;52.846;6.614;2022-12-07T11:32:16;5.82;;;1.58;;
57087;SDS011;42965;52.846;6.614;2022-12-07T11:37:18;4.78;;;1.30;;
57087;SDS011;42965;52.846;6.614;2022-12-07T11:39:51;4.78;;;1.60;;
57087;SDS011;42965;52.846;6.614;2022-12-07T11:42:25;6.50;;;1.70;;
57087;SDS011;42965;52.846;6.614;2022-12-07T11:45:02;5.38;;;1.30;;
57087;SDS011;42965;52.846;6.614;2022-12-07T11:47:46;7.28;;;1.52;;
57087;SDS011;42965;52.846;6.614;2022-12-07T11:50:23;4.72;;;1.38;;
57087;SDS011;42965;52.846;6.614;2022-12-07T11:52:54;6.07;;;1.27;;
57087;SDS011;42965;52.846;6.614;2022-12-07T11:55:56;6.30;;;1.08;;
57087;SDS011;42965;52.846;6.614;2022-12-07T12:01:26;2.97;;;1.02;;
57087;SDS011;42965;52.846;6.614;2022-12-07T12:06:45;7.35;;;1.83;;
57087;SDS011;42965;52.846;6.614;2022-12-07T12:14:43;6.10;;;1.63;;
57087;SDS011;42965;52.846;6.614;2022-12-07T12:20:32;4.20;;;1.45;;
57087;SDS011;42965;52.846;6.614;2022-12-07T12:23:14;6.13;;;1.20;;
57087;SDS011;42965;52.846;6.614;2022-12-07T12:25:57;7.50;;;2.00;;
57087;SDS011;42965;52.846;6.614;2022-12-07T12:33:52;9.85;;;1.88;;
57087;SDS011;42965;52.846;6.614;2022-12-07T12:44:03;7.68;;;2.25;;
57087;SDS011;42965;52.846;6.614;2022-12-07T12:46:55;7.60;;;1.48;;
57087;SDS011;42965;52.846;6.614;2022-12-07T12:52:00;7.40;;;1.83;;
57087;SDS011;42965;52.846;6.614;2022-12-07T12:55:00;7.85;;;1.35;;
57087;SDS011;42965;52.846;6.614;2022-12-07T12:57:27;8.90;;;1.63;;
57087;SDS011;42965;52.846;6.614;2022-12-07T12:59:57;3.10;;;1.40;;
57087;SDS011;42965;52.846;6.614;2022-12-07T13:02:33;6.20;;;1.50;;
57087;SDS011;42965;52.846;6.614;2022-12-07T13:05:03;3.75;;;1.20;;
57087;SDS011;42965;52.846;6.614;2022-12-07T13:15:42;4.35;;;1.00;;
57087;SDS011;42965;52.846;6.614;2022-12-07T13:18:37;3.40;;;0.93;;
57087;SDS011;42965;52.846;6.614;2022-12-07T13:23:36;2.70;;;0.80;;
57087;SDS011;42965;52.846;6.614;2022-12-07T13:31:34;4.43;;;0.85;;
57087;SDS011;42965;52.846;6.614;2022-12-07T13:37:01;5.60;;;1.30;;
57087;SDS011;42965;52.846;6.614;2022-12-07T13:39:43;3.40;;;1.02;;
57087;SDS011;42965;52.846;6.614;2022-12-07T13:42:19;3.33;;;0.90;;
57087;SDS011;42965;52.846;6.614;2022-12-07T13:44:48;3.25;;;0.80;;
57087;SDS011;42965;52.846;6.614;2022-12-07T13:49:56;2.67;;;0.60;;
57087;SDS011;42965;52.846;6.614;2022-12-07T13:52:27;2.10;;;0.60;;
57087;SDS011;42965;52.846;6.614;2022-12-07T13:55:08;2.58;;;0.70;;
57087;SDS011;42965;52.846;6.614;2022-12-07T13:57:41;2.05;;;0.60;;
57087;SDS011;42965;52.846;6.614;2022-12-07T14:00:20;2.75;;;0.60;;
57087;SDS011;42965;52.846;6.614;2022-12-07T14:02:55;3.45;;;0.88;;
57087;SDS011;42965;52.846;6.614;2022-12-07T14:05:27;2.63;;;0.45;;
57087;SDS011;42965;52.846;6.614;2022-12-07T14:10:26;1.67;;;0.65;;
57087;SDS011;42965;52.846;6.614;2022-12-07T14:12:56;2.72;;;0.88;;
57087;SDS011;42965;52.846;6.614;2022-12-07T14:15:32;2.40;;;0.82;;
57087;SDS011;42965;52.846;6.614;2022-12-07T14:18:01;4.35;;;0.60;;
57087;SDS011;42965;52.846;6.614;2022-12-07T14:22:58;3.72;;;1.00;;
57087;SDS011;42965;52.846;6.614;2022-12-07T14:25:47;7.10;;;1.92;;
57087;SDS011;42965;52.846;6.614;2022-12-07T14:28:26;4.70;;;0.80;;
57087;SDS011;42965;52.846;6.614;2022-12-07T14:30:52;3.65;;;1.02;;
57087;SDS011;42965;52.846;6.614;2022-12-07T14:33:18;3.63;;;0.77;;
57087;SDS011;42965;52.846;6.614;2022-12-07T14:35:46;3.78;;;0.65;;
57087;SDS011;42965;52.846;6.614;2022-12-07T14:38:12;7.15;;;0.80;;
57087;SDS011;42965;52.846;6.614;2022-12-07T14:40:39;5.13;;;0.90;;
57087;SDS011;42965;52.846;6.614;2022-12-07T14:43:08;2.95;;;0.77;;
57087;SDS011;42965;52.846;6.614;2022-12-07T14:45:36;3.08;;;0.70;;
57087;SDS011;42965;52.846;6.614;2022-12-07T14:48:03;3.55;;;0.90;;
57087;SDS011;42965;52.846;6.614;2022-12-07T14:50:29;2.53;;;0.60;;
57087;SDS011;42965;52.846;6.614;2022-12-07T14:53:01;6.80;;;2.42;;
57087;SDS011;42965;52.846;6.614;2022-12-07T14:55:39;3.17;;;1.40;;
57087;SDS011;42965;52.846;6.614;2022-12-07T14:58:06;2.50;;;0.82;;
57087;SDS011;42965;52.846;6.614;2022-12-07T15:00:36;4.75;;;0.98;;
57087;SDS011;42965;52.846;6.614;2022-12-07T15:03:02;5.05;;;1.02;;
57087;SDS011;42965;52.846;6.614;2022-12-07T15:05:29;4.25;;;0.90;;
57087;SDS011;42965;52.846;6.614;2022-12-07T15:07:55;3.75;;;1.45;;
57087;SDS011;42965;52.846;6.614;2022-12-07T15:10:22;4.00;;;1.02;;
57087;SDS011;42965;52.846;6.614;2022-12-07T15:12:58;4.68;;;1.20;;
57087;SDS011;42965;52.846;6.614;2022-12-07T15:15:44;5.97;;;0.70;;
57087;SDS011;42965;52.846;6.614;2022-12-07T15:18:11;4.55;;;0.70;;
57087;SDS011;42965;52.846;6.614;2022-12-07T15:20:37;3.63;;;1.00;;
57087;SDS011;42965;52.846;6.614;2022-12-07T15:23:04;4.00;;;1.02;;
57087;SDS011;42965;52.846;6.614;2022-12-07T15:25:30;7.70;;;0.90;;
57087;SDS011;42965;52.846;6.614;2022-12-07T15:27:57;2.60;;;0.85;;
57087;SDS011;42965;52.846;6.614;2022-12-07T15:30:23;3.47;;;0.95;;
57087;SDS011;42965;52.846;6.614;2022-12-07T15:32:52;9.32;;;1.17;;
57087;SDS011;42965;52.846;6.614;2022-12-07T15:35:19;6.55;;;0.95;;
57087;SDS011;42965;52.846;6.614;2022-12-07T15:37:46;6.90;;;2.40;;
57087;SDS011;42965;52.846;6.614;2022-12-07T15:40:13;3.13;;;1.20;;
57087;SDS011;42965;52.846;6.614;2022-12-07T15:42:40;3.53;;;1.10;;
57087;SDS011;42965;52.846;6.614;2022-12-07T15:45:06;9.60;;;1.38;;
57087;SDS011;42965;52.846;6.614;2022-12-07T15:47:38;6.00;;;1.02;;
57087;SDS011;42965;52.846;6.614;2022-12-07T15:50:08;4.05;;;1.30;;
57087;SDS011;42965;52.846;6.614;2022-12-07T15:52:42;3.60;;;1.08;;
57087;SDS011;42965;52.846;6.614;2022-12-07T15:55:08;1.92;;;1.05;;
57087;SDS011;42965;52.846;6.614;2022-12-07T15:57:36;5.43;;;1.00;;
57087;SDS011;42965;52.846;6.614;2022-12-07T16:00:04;4.72;;;1.77;;
57087;SDS011;42965;52.846;6.614;2022-12-07T16:02:31;6.00;;;1.30;;
57087;SDS011;42965;52.846;6.614;2022-12-07T16:04:58;4.63;;;1.58;;
57087;SDS011;42965;52.846;6.614;2022-12-07T16:07:24;8.73;;;1.20;;
57087;SDS011;42965;52.846;6.614;2022-12-07T16:09:51;2.38;;;0.93;;
57087;SDS011;42965;52.846;6.614;2022-12-07T16:12:17;2.90;;;1.42;;
57087;SDS011;42965;52.846;6.614;2022-12-07T16:14:43;3.28;;;1.00;;
57087;SDS011;42965;52.846;6.614;2022-12-07T16:17:10;4.35;;;1.20;;
57087;SDS011;42965;52.846;6.614;2022-12-07T16:19:37;4.93;;;1.05;;
57087;SDS011;42965;52.846;6.614;2022-12-07T16:22:03;5.57;;;1.10;;
57087;SDS011;42965;52.846;6.614;2022-12-07T16:24:30;4.63;;;1.65;;
57087;SDS011;42965;52.846;6.614;2022-12-07T16:26:57;8.27;;;1.48;;
57087;SDS011;42965;52.846;6.614;2022-12-07T16:29:23;3.67;;;1.10;;
57087;SDS011;42965;52.846;6.614;2022-12-07T16:31:50;4.35;;;1.13;;
57087;SDS011;42965;52.846;6.614;2022-12-07T16:34:17;2.05;;;1.05;;
57087;SDS011;42965;52.846;6.614;2022-12-07T16:36:45;3.50;;;1.10;;
57087;SDS011;42965;52.846;6.614;2022-12-07T16:39:11;3.53;;;1.00;;
57087;SDS011;42965;52.846;6.614;2022-12-07T16:41:38;3.25;;;0.93;;
57087;SDS011;42965;52.846;6.614;2022-12-07T16:44:05;3.80;;;1.08;;
57087;SDS011;42965;52.846;6.614;2022-12-07T16:58:18;6.75;;;1.52;;
57087;SDS011;42965;52.846;6.614;2022-12-07T17:00:46;3.28;;;1.17;;
57087;SDS011;42965;52.846;6.614;2022-12-07T17:03:14;5.93;;;1.60;;
57087;SDS011;42965;52.846;6.614;2022-12-07T17:05:42;3.88;;;1.33;;
57087;SDS011;42965;52.846;6.614;2022-12-07T17:08:10;5.38;;;1.65;;
57087;SDS011;42965;52.846;6.614;2022-12-07T17:10:38;3.42;;;1.10;;
57087;SDS011;42965;52.846;6.614;2022-12-07T17:13:07;5.97;;;1.40;;
57087;SDS011;42965;52.846;6.614;2022-12-07T17:16:01;7.32;;;1.50;;
57087;SDS011;42965;52.846;6.614;2022-12-07T17:18:30;4.68;;;1.65;;
57087;SDS011;42965;52.846;6.614;2022-12-07T17:21:04;5.13;;;1.50;;
57087;SDS011;42965;52.846;6.614;2022-12-07T17:23:32;4.80;;;1.42;;
57087;SDS011;42965;52.846;6.614;2022-12-07T17:26:07;4.30;;;1.20;;